createdAt,value
2017-09-13T00:01:42.716Z,80.90
2017-09-13T00:04:12.761Z,80.80
2017-09-13T00:06:42.643Z,80.50
2017-09-13T00:09:12.490Z,80.50
2017-09-13T00:11:46.623Z,80.70
2017-09-13T00:14:16.807Z,80.40
2017-09-13T00:16:48.563Z,80.60
2017-09-13T00:19:18.652Z,80.90
2017-09-13T00:21:47.806Z,81.00
2017-09-13T00:24:17.569Z,80.80
2017-09-13T00:26:48.292Z,80.80
2017-09-13T00:29:18.545Z,81.20
2017-09-13T00:31:49.801Z,81.50
2017-09-13T00:34:18.964Z,81.50
2017-09-13T00:36:51.253Z,81.50
2017-09-13T00:39:20.866Z,80.80
2017-09-13T00:41:50.666Z,81.10
2017-09-13T00:44:21.813Z,80.40
2017-09-13T00:46:51.959Z,80.10
2017-09-13T00:49:21.349Z,80.10
2017-09-13T00:51:50.773Z,80.60
2017-09-13T00:54:20.096Z,80.20
2017-09-13T00:56:49.284Z,80.30
2017-09-13T00:59:19.211Z,79.50
2017-09-13T01:01:48.728Z,79.60
2017-09-13T01:07:09.772Z,79.30
2017-09-13T01:09:39.611Z,79.90
2017-09-13T01:12:08.593Z,80.00
2017-09-13T01:14:37.505Z,79.70
2017-09-13T01:17:07.249Z,78.90
2017-09-13T01:19:36.325Z,78.50
2017-09-13T01:22:05.369Z,78.10
2017-09-13T01:24:34.933Z,77.80
2017-09-13T01:27:03.965Z,77.60
2017-09-13T01:29:33.622Z,78.00
2017-09-13T01:32:02.770Z,77.70
2017-09-13T01:34:31.880Z,77.80
2017-09-13T01:37:01.290Z,78.50
2017-09-13T01:39:30.297Z,78.40
2017-09-13T01:41:59.581Z,77.70
2017-09-13T01:44:28.631Z,77.40
2017-09-13T01:46:57.676Z,76.50
2017-09-13T01:49:26.894Z,76.30
2017-09-13T01:51:56.154Z,76.40
2017-09-13T01:54:25.610Z,75.90
2017-09-13T01:56:54.640Z,76.80
2017-09-13T01:59:24.505Z,76.10
2017-09-13T02:01:53.787Z,75.70
2017-09-13T02:04:22.877Z,74.70
2017-09-13T02:06:51.937Z,75.70
2017-09-13T02:09:20.983Z,75.30
2017-09-13T02:11:50.599Z,74.90
2017-09-13T02:14:19.550Z,74.90
2017-09-13T02:16:48.677Z,74.20
2017-09-13T02:19:18.108Z,74.20
2017-09-13T02:24:30.553Z,73.30
2017-09-13T02:26:59.551Z,73.90
2017-09-13T02:29:29.165Z,74.40
2017-09-13T02:31:58.509Z,74.00
2017-09-13T02:34:27.401Z,74.10
2017-09-13T02:36:56.338Z,72.50
2017-09-13T02:39:25.214Z,72.80
2017-09-13T02:41:55.030Z,72.20
2017-09-13T02:44:24.470Z,71.20
2017-09-13T02:46:53.704Z,72.20
2017-09-13T02:49:23.677Z,76.00
2017-09-13T02:51:52.682Z,76.00
2017-09-13T02:54:21.803Z,76.80
2017-09-13T02:56:51.385Z,79.20
2017-09-13T02:59:21.258Z,80.60
2017-09-13T03:04:41.786Z,78.90
2017-09-13T03:07:11.032Z,81.70
2017-09-13T03:09:39.937Z,82.60
2017-09-13T03:12:09.210Z,83.60
2017-09-13T03:14:38.452Z,83.50
2017-09-13T03:17:07.536Z,84.70
2017-09-13T03:19:37.001Z,85.70
2017-09-13T03:22:06.619Z,85.70
2017-09-13T03:24:35.574Z,85.60
2017-09-13T03:27:04.667Z,85.00
2017-09-13T03:29:33.631Z,83.80
2017-09-13T03:32:02.932Z,83.50
2017-09-13T03:34:31.765Z,84.60
2017-09-13T03:37:01.016Z,84.10
2017-09-13T03:39:30.110Z,84.50
2017-09-13T03:41:59.106Z,83.50
2017-09-13T03:44:28.104Z,82.90
2017-09-13T03:46:56.968Z,82.00
2017-09-13T03:49:25.741Z,82.90
2017-09-13T03:51:54.676Z,83.20
2017-09-13T03:54:23.529Z,82.40
2017-09-13T03:56:52.477Z,82.60
2017-09-13T03:59:21.445Z,82.30
2017-09-13T04:01:50.299Z,82.10
2017-09-13T04:07:09.553Z,82.00
2017-09-13T04:09:39.204Z,81.30
2017-09-13T04:12:08.157Z,81.30
2017-09-13T04:14:38.165Z,80.80
2017-09-13T04:17:07.841Z,81.90
2017-09-13T04:19:36.686Z,81.20
2017-09-13T04:22:06.125Z,80.90
2017-09-13T04:24:35.036Z,80.70
2017-09-13T04:27:03.902Z,80.30
2017-09-13T04:32:23.405Z,80.90
2017-09-13T04:34:52.235Z,81.10
2017-09-13T04:37:21.086Z,81.80
2017-09-13T04:39:49.895Z,83.20
2017-09-13T04:42:19.019Z,82.70
2017-09-13T04:44:47.976Z,83.40
2017-09-13T04:47:17.049Z,83.60
2017-09-13T04:49:45.974Z,83.80
2017-09-13T04:52:15.939Z,86.30
2017-09-13T04:54:44.674Z,86.30
2017-09-13T04:57:13.602Z,87.30
2017-09-13T04:59:42.340Z,87.70
2017-09-13T05:02:12.130Z,87.20
2017-09-13T05:04:41.570Z,87.20
2017-09-13T05:07:10.818Z,86.10
2017-09-13T05:09:39.659Z,87.10
2017-09-13T05:12:08.501Z,87.20
2017-09-13T05:14:37.369Z,85.90
2017-09-13T05:17:06.489Z,86.60
2017-09-13T05:19:35.618Z,85.90
2017-09-13T05:22:04.733Z,85.70
2017-09-13T05:24:34.018Z,85.20
2017-09-13T05:27:03.020Z,84.70
2017-09-13T05:29:32.074Z,85.50
2017-09-13T05:32:01.878Z,85.00
2017-09-13T05:34:31.908Z,84.10
2017-09-13T05:37:01.667Z,83.70
2017-09-13T05:39:30.732Z,83.70
2017-09-13T05:41:59.546Z,83.70
2017-09-13T05:44:28.371Z,83.20
2017-09-13T05:46:57.514Z,83.00
2017-09-13T05:49:26.437Z,82.50
2017-09-13T05:51:55.454Z,82.60
2017-09-13T05:54:25.316Z,81.70
2017-09-13T05:56:54.319Z,81.50
2017-09-13T05:59:45.903Z,82.00
2017-09-13T06:02:14.909Z,82.10
2017-09-13T06:04:44.883Z,81.30
2017-09-13T06:07:13.728Z,81.30
2017-09-13T06:09:43.521Z,83.50
2017-09-13T06:12:12.667Z,83.50
2017-09-13T06:14:41.676Z,83.10
2017-09-13T06:17:11.246Z,84.40
2017-09-13T06:19:40.789Z,83.60
2017-09-13T06:22:09.822Z,83.30
2017-09-13T06:24:38.662Z,83.40
2017-09-13T06:27:08.383Z,82.90
2017-09-13T06:29:37.923Z,83.40
2017-09-13T06:32:07.139Z,83.30
2017-09-13T06:34:36.902Z,86.20
2017-09-13T06:37:06.665Z,87.60
2017-09-13T06:39:36.425Z,88.90
2017-09-13T06:42:05.389Z,88.80
2017-09-13T06:44:34.959Z,90.10
2017-09-13T06:47:04.128Z,90.10
2017-09-13T06:49:33.129Z,90.50
2017-09-13T06:52:02.914Z,91.00
2017-09-13T06:54:32.983Z,90.20
2017-09-13T06:57:02.035Z,90.20
2017-09-13T06:59:31.325Z,90.00
2017-09-13T07:02:00.287Z,90.30
2017-09-13T07:04:29.941Z,89.30
2017-09-13T07:06:58.974Z,89.50
2017-09-13T07:09:28.018Z,89.00
2017-09-13T07:11:57.022Z,86.30
2017-09-13T07:14:26.152Z,86.30
2017-09-13T07:16:55.266Z,85.20
2017-09-13T07:19:25.038Z,82.40
2017-09-13T07:21:54.925Z,82.70
2017-09-13T07:24:24.203Z,82.80
2017-09-13T07:26:53.887Z,80.90
2017-09-13T07:29:23.186Z,80.90
2017-09-13T07:31:52.249Z,80.30
2017-09-13T07:34:21.272Z,79.40
2017-09-13T07:36:50.255Z,79.30
2017-09-13T07:39:19.178Z,78.60
2017-09-13T07:41:48.491Z,77.60
2017-09-13T07:44:17.690Z,75.90
2017-09-13T07:46:46.778Z,72.50
2017-09-13T07:49:15.813Z,72.20
2017-09-13T07:51:44.603Z,72.00
2017-09-13T07:54:13.645Z,72.80
2017-09-13T07:56:42.644Z,71.60
2017-09-13T07:59:11.771Z,70.10
2017-09-13T08:01:40.549Z,68.50
2017-09-13T08:04:09.400Z,66.30
2017-09-13T08:06:38.401Z,67.10
2017-09-13T08:09:07.408Z,65.80
2017-09-13T08:11:36.682Z,66.30
2017-09-13T08:14:05.682Z,66.00
2017-09-13T08:16:34.737Z,66.00
2017-09-13T08:19:03.718Z,66.30
2017-09-13T08:21:32.914Z,66.80
2017-09-13T08:24:02.348Z,67.30
2017-09-13T08:26:32.118Z,65.70
2017-09-13T08:29:01.089Z,65.70
2017-09-13T08:31:30.226Z,66.60
2017-09-13T08:33:59.191Z,64.90
2017-09-13T08:36:28.229Z,65.10
2017-09-13T08:38:57.859Z,63.70
2017-09-13T08:41:27.007Z,63.70
2017-09-13T08:43:55.815Z,62.70
2017-09-13T08:46:25.382Z,61.50
2017-09-13T08:48:54.222Z,61.50
2017-09-13T08:51:23.930Z,60.50
2017-09-13T08:53:53.857Z,60.80
2017-09-13T08:56:23.090Z,60.80
2017-09-13T08:58:52.225Z,61.50
2017-09-13T09:01:21.935Z,62.60
2017-09-13T09:03:51.814Z,62.70
2017-09-13T09:06:21.093Z,62.70
2017-09-13T09:08:50.087Z,65.90
2017-09-13T09:11:19.108Z,66.80
2017-09-13T09:13:48.402Z,72.50
2017-09-13T09:16:17.490Z,78.90
2017-09-13T09:18:46.340Z,79.80
2017-09-13T09:21:15.135Z,77.60
2017-09-13T09:23:44.170Z,76.80
2017-09-13T09:26:14.016Z,73.60
2017-09-13T09:28:42.909Z,73.60
2017-09-13T09:31:12.542Z,69.00
2017-09-13T09:33:41.577Z,69.00
2017-09-13T09:36:10.737Z,68.20
2017-09-13T09:38:39.792Z,67.80
2017-09-13T09:41:08.818Z,67.50
2017-09-13T09:43:37.727Z,68.50
2017-09-13T09:46:06.845Z,68.70
2017-09-13T09:48:35.696Z,69.80
2017-09-13T09:51:04.502Z,68.80
2017-09-13T09:53:33.324Z,68.70
2017-09-13T09:56:02.875Z,66.70
2017-09-13T09:58:32.029Z,66.70
2017-09-13T10:01:01.782Z,66.30
2017-09-13T10:03:30.666Z,66.30
2017-09-13T10:05:59.546Z,67.90
2017-09-13T10:08:28.403Z,67.80
2017-09-13T10:10:58.139Z,65.30
2017-09-13T10:13:27.821Z,65.50
2017-09-13T10:15:57.681Z,66.00
2017-09-13T10:18:26.545Z,66.10
2017-09-13T10:20:55.385Z,66.10
2017-09-13T10:23:24.192Z,65.40
2017-09-13T10:25:53.801Z,64.00
2017-09-13T10:28:23.680Z,63.40
2017-09-13T10:30:52.501Z,63.50
2017-09-13T10:33:22.088Z,61.60
2017-09-13T10:35:50.870Z,61.60
2017-09-13T10:38:19.670Z,61.90
2017-09-13T10:40:49.615Z,60.50
2017-09-13T10:43:18.450Z,60.50
2017-09-13T10:45:47.358Z,60.70
2017-09-13T10:48:16.955Z,63.00
2017-09-13T10:50:45.798Z,63.00
2017-09-13T10:53:14.659Z,63.30
2017-09-13T10:55:44.175Z,60.00
2017-09-13T10:58:13.008Z,60.40
2017-09-13T11:00:42.026Z,59.30
2017-09-13T11:03:11.964Z,59.20
2017-09-13T11:05:41.006Z,59.10
2017-09-13T11:08:09.997Z,59.20
2017-09-13T11:10:39.382Z,59.90
2017-09-13T11:13:08.264Z,57.80
2017-09-13T11:15:37.082Z,58.70
2017-09-13T11:18:06.012Z,58.60
2017-09-13T11:20:35.003Z,58.40
2017-09-13T11:23:04.437Z,57.70
2017-09-13T11:25:33.447Z,56.80
2017-09-13T11:28:02.408Z,56.20
2017-09-13T11:30:31.713Z,55.90
2017-09-13T11:33:00.718Z,57.40
2017-09-13T11:35:29.712Z,54.90
2017-09-13T11:37:58.784Z,55.00
2017-09-13T11:40:27.858Z,54.20
2017-09-13T11:42:57.158Z,55.00
2017-09-13T11:45:27.035Z,53.00
2017-09-13T11:47:56.210Z,53.00
2017-09-13T11:50:25.282Z,53.40
2017-09-13T11:52:54.547Z,55.10
2017-09-13T11:55:24.725Z,55.50
2017-09-13T11:57:53.693Z,55.50
2017-09-13T12:00:22.756Z,55.30
2017-09-13T12:02:51.718Z,55.50
2017-09-13T12:05:20.693Z,53.70
2017-09-13T12:07:49.747Z,53.10
2017-09-13T12:10:18.583Z,53.40
2017-09-13T12:12:47.841Z,53.80
2017-09-13T12:15:16.848Z,53.40
2017-09-13T12:17:45.770Z,54.20
2017-09-13T12:20:15.133Z,54.60
2017-09-13T12:22:43.961Z,54.20
2017-09-13T12:25:13.308Z,53.80
2017-09-13T12:27:42.700Z,54.00
2017-09-13T12:30:12.545Z,54.20
2017-09-13T12:32:41.754Z,54.10
2017-09-13T12:35:11.170Z,54.20
2017-09-13T12:37:40.435Z,53.70
2017-09-13T12:40:09.253Z,51.90
2017-09-13T12:42:38.181Z,51.10
2017-09-13T12:45:08.462Z,49.80
2017-09-13T12:47:37.528Z,49.80
2017-09-13T12:50:06.588Z,50.60
2017-09-13T12:52:36.388Z,51.10
2017-09-13T12:55:06.111Z,50.90
2017-09-13T12:57:36.262Z,51.50
2017-09-13T13:00:05.182Z,51.50
2017-09-13T13:02:34.161Z,51.50
2017-09-13T13:05:03.145Z,51.90
2017-09-13T13:07:32.046Z,51.80
2017-09-13T13:10:00.911Z,51.90
2017-09-13T13:12:29.814Z,51.90
2017-09-13T13:14:58.653Z,52.10
2017-09-13T13:17:28.369Z,53.70
2017-09-13T13:19:57.454Z,53.70
2017-09-13T13:22:26.478Z,54.60
2017-09-13T13:24:55.718Z,54.60
2017-09-13T13:27:25.213Z,53.90
2017-09-13T13:29:54.402Z,53.70
2017-09-13T13:32:23.509Z,54.60
2017-09-13T13:34:52.437Z,55.30
2017-09-13T13:37:21.438Z,56.80
2017-09-13T13:39:51.981Z,57.00
2017-09-13T13:42:20.975Z,59.10
2017-09-13T13:44:50.097Z,59.30
2017-09-13T13:47:19.136Z,61.20
2017-09-13T13:49:48.387Z,62.40
2017-09-13T13:52:17.700Z,61.70
2017-09-13T13:54:46.976Z,62.50
2017-09-13T13:57:15.971Z,63.10
2017-09-13T13:59:45.206Z,61.20
2017-09-13T14:02:15.228Z,62.60
2017-09-13T14:04:45.025Z,63.80
2017-09-13T14:07:14.943Z,64.90
2017-09-13T14:09:44.642Z,65.90
2017-09-13T14:12:14.606Z,67.20
2017-09-13T14:14:43.548Z,67.30
2017-09-13T14:17:12.666Z,69.30
2017-09-13T14:19:41.756Z,70.70
2017-09-13T14:22:10.937Z,78.90
2017-09-13T14:24:40.537Z,88.30
2017-09-13T14:27:09.519Z,88.20
2017-09-13T14:29:39.010Z,90.00
2017-09-13T14:32:08.158Z,91.20
2017-09-13T14:34:37.185Z,92.30
2017-09-13T14:37:07.099Z,92.10
2017-09-13T14:39:36.241Z,92.00
2017-09-13T14:42:06.779Z,91.70
2017-09-13T14:44:35.990Z,91.70
2017-09-13T14:47:05.343Z,91.80
2017-09-13T14:49:35.024Z,92.30
2017-09-13T14:52:03.964Z,91.80
2017-09-13T14:54:34.916Z,91.70
2017-09-13T14:57:03.838Z,91.70
2017-09-13T14:59:33.623Z,90.70
2017-09-13T15:02:02.910Z,90.70
2017-09-13T15:04:32.592Z,90.50
2017-09-13T15:07:01.640Z,90.50
2017-09-13T15:09:30.776Z,90.00
2017-09-13T15:12:00.457Z,90.00
2017-09-13T15:14:29.547Z,90.30
2017-09-13T15:16:58.462Z,89.20
2017-09-13T15:19:28.499Z,87.50
2017-09-13T15:21:58.378Z,87.70
2017-09-13T15:24:27.400Z,87.70
2017-09-13T15:26:56.870Z,86.30
2017-09-13T15:29:25.896Z,86.80
2017-09-13T15:31:54.787Z,85.50
2017-09-13T15:34:24.498Z,86.20
2017-09-13T15:36:53.395Z,86.20
2017-09-13T15:39:23.234Z,86.30
2017-09-13T15:41:52.904Z,86.10
2017-09-13T15:44:23.432Z,83.40
2017-09-13T15:46:53.203Z,79.20
2017-09-13T15:49:22.107Z,79.20
2017-09-13T15:51:50.955Z,80.60
2017-09-13T15:54:19.749Z,80.20
2017-09-13T15:56:49.876Z,79.40
2017-09-13T15:59:18.974Z,79.50
2017-09-13T16:01:47.963Z,78.20
2017-09-13T16:04:17.343Z,77.80
2017-09-13T16:06:46.462Z,77.30
2017-09-13T16:09:15.602Z,75.30
2017-09-13T16:11:44.511Z,74.60
2017-09-13T16:14:13.879Z,74.20
2017-09-13T16:16:43.110Z,74.40
2017-09-13T16:19:12.854Z,74.00
2017-09-13T16:21:41.679Z,74.00
2017-09-13T16:24:10.579Z,75.00
2017-09-13T16:26:40.341Z,74.10
2017-09-13T16:29:09.699Z,74.00
2017-09-13T16:31:39.273Z,72.40
2017-09-13T16:34:08.109Z,72.40
2017-09-13T16:36:37.206Z,73.00
2017-09-13T16:39:06.467Z,73.20
2017-09-13T16:41:36.147Z,72.40
2017-09-13T16:44:05.128Z,72.40
2017-09-13T16:46:35.094Z,72.60
2017-09-13T16:49:04.776Z,72.10
2017-09-13T16:51:33.769Z,72.00
2017-09-13T16:54:02.845Z,73.10
2017-09-13T16:56:31.938Z,69.90
2017-09-13T16:59:01.070Z,70.00
2017-09-13T17:01:30.746Z,69.10
2017-09-13T17:03:59.898Z,69.20
2017-09-13T17:06:28.832Z,69.30
2017-09-13T17:08:57.665Z,68.30
2017-09-13T17:11:26.959Z,69.10
2017-09-13T17:13:56.701Z,69.30
2017-09-13T17:16:25.808Z,69.30
2017-09-13T17:18:55.135Z,69.30
2017-09-13T17:21:24.124Z,69.80
2017-09-13T17:23:53.464Z,69.60
2017-09-13T17:26:22.781Z,70.30
2017-09-13T17:28:51.926Z,70.10
2017-09-13T17:31:20.882Z,68.10
2017-09-13T17:33:50.040Z,69.30
2017-09-13T17:36:19.838Z,69.20
2017-09-13T17:38:49.859Z,68.10
2017-09-13T17:41:20.071Z,68.20
2017-09-13T17:43:49.891Z,69.00
2017-09-13T17:46:20.290Z,67.90
2017-09-13T17:48:50.304Z,67.40
2017-09-13T17:51:19.283Z,67.40
2017-09-13T17:53:48.571Z,68.10
2017-09-13T17:56:17.807Z,68.30
2017-09-13T17:58:47.657Z,69.80
2017-09-13T18:01:19.212Z,69.70
2017-09-13T18:03:48.661Z,69.90
2017-09-13T18:06:17.515Z,69.10
2017-09-13T18:08:46.426Z,69.80
2017-09-13T18:11:15.803Z,69.60
2017-09-13T18:13:44.775Z,69.60
2017-09-13T18:16:13.806Z,69.90
2017-09-13T18:18:42.809Z,70.60
2017-09-13T18:21:11.930Z,70.90
2017-09-13T18:23:42.635Z,70.40
2017-09-13T18:27:41.645Z,70.50
2017-09-13T18:30:10.718Z,71.00
2017-09-13T18:32:39.693Z,70.10
2017-09-13T18:35:09.070Z,70.20
2017-09-13T18:37:38.398Z,70.30
2017-09-13T18:40:07.498Z,70.40
2017-09-13T18:42:36.673Z,69.80
2017-09-13T18:45:05.765Z,70.90
2017-09-13T18:47:34.866Z,70.90
2017-09-13T18:50:04.328Z,71.30
2017-09-13T18:52:34.042Z,72.00
2017-09-13T18:55:04.066Z,70.90
2017-09-13T18:57:34.452Z,71.00
2017-09-13T19:00:05.919Z,71.10
2017-09-13T19:02:35.666Z,70.90
2017-09-13T19:05:05.770Z,70.80
2017-09-13T19:07:37.933Z,71.20
2017-09-13T19:10:09.850Z,71.10
2017-09-13T19:12:42.871Z,71.40
2017-09-13T19:15:15.732Z,72.50
2017-09-13T19:17:46.849Z,72.50
2017-09-13T19:20:19.068Z,72.80
2017-09-13T19:22:49.198Z,73.20
2017-09-13T19:25:20.862Z,73.30
2017-09-13T19:27:51.586Z,73.50
2017-09-13T19:30:21.486Z,74.20
2017-09-13T19:32:52.457Z,74.60
2017-09-13T19:35:22.432Z,74.80
2017-09-13T19:37:52.127Z,74.90
2017-09-13T19:40:23.314Z,75.60
2017-09-13T19:42:53.396Z,75.60
2017-09-13T19:45:24.542Z,75.80
2017-09-13T19:47:54.428Z,75.50
2017-09-13T19:50:23.971Z,75.50
2017-09-13T19:52:53.152Z,75.00
2017-09-13T19:55:23.317Z,75.00
2017-09-13T19:57:52.671Z,74.90
2017-09-13T20:00:23.416Z,75.60
2017-09-13T20:02:56.850Z,75.60
2017-09-13T20:05:26.298Z,75.30
2017-09-13T20:07:56.261Z,75.00
2017-09-13T20:10:25.152Z,75.00
2017-09-13T20:12:54.132Z,74.20
2017-09-13T20:15:23.141Z,74.40
2017-09-13T20:17:55.671Z,74.60
2017-09-13T20:20:25.350Z,74.10
2017-09-13T20:22:54.241Z,74.70
2017-09-13T20:25:23.206Z,75.00
2017-09-13T20:27:52.119Z,74.80
2017-09-13T20:30:22.209Z,75.50
2017-09-13T20:32:51.623Z,75.40
2017-09-13T20:35:20.499Z,74.90
2017-09-13T20:37:49.486Z,75.40
2017-09-13T20:40:19.269Z,75.30
2017-09-13T20:42:48.408Z,75.20
2017-09-13T20:45:17.590Z,75.60
2017-09-13T20:47:46.678Z,74.70
2017-09-13T20:50:15.668Z,75.00
2017-09-13T20:52:44.973Z,75.40
2017-09-13T20:55:13.858Z,75.70
2017-09-13T20:57:43.173Z,75.60
2017-09-13T21:00:12.433Z,75.70
2017-09-13T21:02:42.123Z,76.40
2017-09-13T21:05:11.737Z,76.30
2017-09-13T21:07:40.689Z,76.00
2017-09-13T21:10:09.807Z,76.30
2017-09-13T21:12:45.009Z,75.10
2017-09-13T21:15:13.943Z,75.00
2017-09-13T21:17:43.813Z,74.40
2017-09-13T21:20:12.669Z,74.30
2017-09-13T21:22:41.911Z,74.80
2017-09-13T21:25:10.855Z,74.30
2017-09-13T21:27:39.870Z,74.20
2017-09-13T21:30:09.164Z,73.90
2017-09-13T21:32:38.203Z,73.80
2017-09-13T21:35:08.416Z,74.00
2017-09-13T21:37:37.250Z,74.00
2017-09-13T21:40:06.508Z,73.50
2017-09-13T21:42:36.507Z,73.70
2017-09-13T21:45:05.516Z,73.70
2017-09-13T21:47:34.659Z,73.60
2017-09-13T21:50:03.521Z,72.80
2017-09-13T21:52:32.369Z,72.80
2017-09-13T21:55:01.544Z,73.40
2017-09-13T21:57:30.464Z,73.20
2017-09-13T21:59:59.511Z,72.60
2017-09-13T22:02:28.944Z,72.30
2017-09-13T22:04:58.848Z,72.20
2017-09-13T22:07:29.232Z,72.40
2017-09-13T22:09:58.768Z,72.50
2017-09-13T22:12:28.008Z,73.30
2017-09-13T22:14:58.424Z,72.90
2017-09-13T22:17:29.712Z,72.00
2017-09-13T22:19:59.032Z,72.00
2017-09-13T22:22:28.424Z,72.70
2017-09-13T22:24:58.159Z,72.00
2017-09-13T22:27:27.799Z,72.00
2017-09-13T22:29:57.057Z,72.50
2017-09-13T22:32:25.981Z,72.50
2017-09-13T22:34:55.516Z,72.40
2017-09-13T22:37:24.418Z,72.70
2017-09-13T22:39:53.868Z,73.00
2017-09-13T22:42:22.701Z,72.70
2017-09-13T22:44:51.521Z,73.00
2017-09-13T22:47:20.445Z,72.80
2017-09-13T22:49:50.058Z,73.10
2017-09-13T22:52:19.836Z,72.90
2017-09-13T22:54:48.752Z,72.90
2017-09-13T22:57:18.582Z,73.90
2017-09-13T22:59:47.856Z,73.90
2017-09-13T23:02:18.079Z,73.70
2017-09-13T23:04:47.856Z,73.80
2017-09-13T23:07:16.868Z,73.70
2017-09-13T23:09:46.106Z,74.30
2017-09-13T23:12:15.008Z,74.30
2017-09-13T23:14:43.932Z,73.60
2017-09-13T23:17:13.291Z,74.30
2017-09-13T23:20:44.968Z,74.10
2017-09-13T23:23:14.347Z,73.80
2017-09-13T23:25:43.668Z,74.90
2017-09-13T23:28:13.541Z,74.30
2017-09-13T23:30:42.431Z,75.00
2017-09-13T23:33:12.141Z,74.30
2017-09-13T23:35:41.930Z,73.80
2017-09-13T23:38:15.878Z,73.80
2017-09-13T23:40:44.911Z,73.50
2017-09-13T23:43:13.718Z,73.30
2017-09-13T23:45:42.581Z,73.30
2017-09-13T23:48:11.732Z,73.70
2017-09-13T23:50:41.129Z,73.60
2017-09-13T23:53:10.282Z,72.80
2017-09-13T23:55:39.335Z,74.00
2017-09-13T23:58:08.565Z,73.70
